Time;durP1;ratioP1;P1;durP2;ratioP2;P2;SDS_P1;SDS_P2;PMS_P1;PMS_P2;Temp;Humidity;BMP_temperature;BMP_pressure;BME280_temperature;BME280_humidity;BME280_pressure;Samples;Min_cycle;Max_cycle;Signal;HPM_P1;HPM_P2
2022/05/01 00:00:02;;;;;;;5.22;4.72;;;9.60;1.00;;;9.58;66.48;101691.34;4920606;29;20186;-74
2022/05/01 00:02:32;;;;;;;6.25;4.35;;;9.60;1.00;;;9.51;66.52;101690.41;4919851;29;20268;-75
2022/05/01 00:05:01;;;;;;;6.90;4.78;;;9.50;1.00;;;9.58;66.13;101680.53;4917844;29;20178;-74
2022/05/01 00:07:32;;;;;;;5.43;3.50;;;9.50;1.00;;;9.45;66.33;101676.72;4917078;29;20248;-74
2022/05/01 00:10:06;;;;;;;6.20;3.97;;;9.50;1.00;;;9.41;66.53;101673.56;4916876;29;20212;-74
2022/05/01 00:12:35;;;;;;;5.60;3.83;;;9.40;1.00;;;9.32;66.69;101676.47;4916536;29;20657;-73
2022/05/01 00:15:05;;;;;;;4.63;4.15;;;9.40;1.00;;;9.27;66.73;101682.38;4917151;29;20193;-75
2022/05/01 00:17:34;;;;;;;5.18;3.78;;;9.30;1.00;;;9.27;66.58;101678.84;4916331;29;20252;-73
2022/05/01 00:20:05;;;;;;;6.20;3.88;;;9.30;1.00;;;9.19;66.97;101670.78;4917202;29;20221;-72
2022/05/01 00:22:34;;;;;;;6.72;4.15;;;9.30;1.00;;;9.21;66.67;101676.84;4918850;29;20185;-73
2022/05/01 00:25:06;;;;;;;6.47;4.47;;;9.20;1.00;;;9.07;67.22;101671.16;4919537;29;20230;-73
2022/05/01 00:27:36;;;;;;;5.03;4.13;;;9.20;1.00;;;9.08;67.32;101682.78;4920415;29;20244;-73
2022/05/01 00:30:07;;;;;;;4.05;3.67;;;9.10;1.00;;;9.00;67.49;101680.97;4919756;29;20689;-74
2022/05/01 00:38:06;;;;;;;4.75;4.35;;;9.00;1.00;;;8.92;67.52;101674.72;4931022;29;20553;-73
2022/05/01 00:40:37;;;;;;;3.55;3.25;;;9.00;1.00;;;8.94;67.26;101678.13;4931752;29;20213;-74
2022/05/01 00:43:08;;;;;;;3.88;3.45;;;9.00;1.00;;;8.78;67.71;101676.28;4932466;29;20349;-74
2022/05/01 00:45:37;;;;;;;5.10;3.42;;;8.90;1.00;;;8.69;67.99;101671.91;4932782;29;20249;-72
2022/05/01 00:48:07;;;;;;;7.30;5.15;;;9.10;1.00;;;8.73;67.72;101675.94;4931910;29;20166;-72
2022/05/01 00:50:37;;;;;;;14.35;5.35;;;8.80;1.00;;;8.52;68.27;101668.38;4932103;29;20236;-74
2022/05/01 00:53:07;;;;;;;4.00;3.60;;;8.70;1.00;;;8.68;68.09;101671.06;4935169;29;20197;-74
2022/05/01 00:55:41;;;;;;;4.78;3.88;;;8.70;1.00;;;8.74;67.63;101669.53;4920229;29;20532;-74
2022/05/01 00:58:13;;;;;;;8.77;4.63;;;8.70;1.00;;;8.69;67.83;101666.53;4919593;29;20208;-74
2022/05/01 01:00:43;;;;;;;3.92;3.13;;;8.70;1.00;;;8.74;67.40;101664.16;4918851;29;20225;-73
2022/05/01 01:03:13;;;;;;;11.18;4.05;;;8.70;1.00;;;8.71;67.31;101670.72;4919048;29;20231;-73
2022/05/01 01:05:44;;;;;;;9.82;5.38;;;8.80;1.00;;;8.65;67.50;101675.97;4919568;29;20201;-74
2022/05/01 01:08:14;;;;;;;12.93;4.00;;;8.70;1.00;;;8.54;67.90;101670.91;4919017;29;20174;-72
2022/05/01 01:10:47;;;;;;;14.15;4.30;;;8.70;1.00;;;8.58;67.60;101669.56;4917573;29;20241;-73
2022/05/01 01:13:16;;;;;;;6.85;3.45;;;8.60;1.00;;;8.55;67.79;101667.22;4917487;29;20211;-74
2022/05/01 01:15:49;;;;;;;4.60;3.67;;;8.60;1.00;;;8.53;67.63;101661.97;4918038;29;20197;-73
2022/05/01 01:18:18;;;;;;;4.97;3.55;;;8.60;1.00;;;8.60;67.81;101663.00;4917318;29;20744;-75
2022/05/01 01:20:49;;;;;;;9.90;5.65;;;8.60;1.00;;;8.58;67.34;101656.06;4916992;29;20217;-73
2022/05/01 01:23:21;;;;;;;10.30;4.25;;;8.60;1.00;;;8.46;67.50;101665.53;4917326;29;20201;-73
2022/05/01 01:25:52;;;;;;;8.85;3.25;;;8.60;1.00;;;8.47;67.51;101672.63;4917947;29;20189;-73
2022/05/01 01:28:22;;;;;;;4.95;4.50;;;8.50;1.00;;;8.33;67.99;101662.53;4917615;29;20186;-73
2022/05/01 01:33:45;;;;;;;4.97;3.92;;;8.50;1.00;;;8.38;67.43;101668.22;4917796;29;20198;-74
2022/05/01 01:36:17;;;;;;;7.20;4.30;;;8.50;1.00;;;8.41;67.24;101657.13;4918361;29;20177;-73
2022/05/01 01:38:50;;;;;;;6.35;4.65;;;8.50;1.00;;;8.44;66.93;101663.00;4918361;29;20197;-73
2022/05/01 01:41:25;;;;;;;3.65;3.30;;;8.50;1.00;;;8.31;67.18;101669.91;4919160;29;20205;-73
2022/05/01 01:44:03;;;;;;;3.50;2.83;;;8.40;1.00;;;8.18;67.72;101667.72;4918857;29;20200;-74
2022/05/01 01:46:33;;;;;;;4.63;4.18;;;8.30;1.00;;;8.19;67.92;101670.22;4918554;29;20283;-73
2022/05/01 01:49:08;;;;;;;6.22;3.83;;;8.30;1.00;;;8.09;68.12;101674.06;4918377;29;20193;-74
2022/05/01 01:51:39;;;;;;;6.07;3.97;;;8.20;1.00;;;8.07;68.20;101676.97;4918741;29;20296;-75
2022/05/01 01:54:08;;;;;;;4.88;3.33;;;8.20;1.00;;;8.08;68.34;101672.41;4919008;29;20205;-74
2022/05/01 01:56:39;;;;;;;6.85;4.20;;;8.20;1.00;;;8.37;67.38;101674.66;4918744;29;20193;-73
2022/05/01 01:59:09;;;;;;;4.32;3.45;;;8.30;1.00;;;8.17;67.53;101674.94;4918121;29;20576;-73
2022/05/01 02:01:42;;;;;;;7.70;4.40;;;8.30;1.00;;;8.09;67.66;101669.53;4917476;29;20217;-74
2022/05/01 02:04:12;;;;;;;3.58;2.85;;;8.20;1.00;;;8.09;67.75;101668.69;4917498;29;20653;-74
2022/05/01 02:06:43;;;;;;;6.72;3.42;;;8.20;1.00;;;8.17;67.77;101676.81;4917283;29;20208;-73
2022/05/01 02:09:15;;;;;;;4.43;3.65;;;8.20;1.00;;;8.27;67.49;101672.09;4918546;29;20181;-74
2022/05/01 02:11:43;;;;;;;4.53;3.33;;;8.20;1.00;;;8.29;67.39;101673.63;4918014;29;20261;-74
2022/05/01 02:14:13;;;;;;;6.78;4.47;;;8.30;1.00;;;8.14;68.04;101675.25;4916922;29;20174;-74
2022/05/01 02:16:42;;;;;;;4.80;4.40;;;8.30;1.00;;;8.06;68.29;101671.72;4917599;29;20197;-71
2022/05/01 02:19:12;;;;;;;13.50;5.00;;;8.20;1.00;;;8.07;68.50;101665.34;4917091;29;20256;-74
2022/05/01 02:21:45;;;;;;;5.03;4.53;;;8.20;1.00;;;7.99;68.30;101673.41;4917046;29;20209;-74
2022/05/01 02:24:16;;;;;;;4.25;3.85;;;8.10;1.00;;;7.91;68.65;101670.69;4916996;29;20227;-74
2022/05/01 02:26:47;;;;;;;6.40;3.58;;;8.00;1.00;;;7.97;68.37;101673.56;4917580;29;20193;-72
2022/05/01 02:29:19;;;;;;;5.20;3.80;;;8.10;1.00;;;7.88;68.78;101682.66;4917586;29;20177;-75
2022/05/01 02:31:53;;;;;;;4.22;3.80;;;8.00;1.00;;;7.90;68.83;101680.63;4917109;29;20742;-73
2022/05/01 02:34:24;;;;;;;6.40;3.55;;;7.90;1.00;;;7.90;68.91;101675.22;4917435;29;20313;-74
2022/05/01 02:36:55;;;;;;;3.90;3.08;;;7.90;1.00;;;7.84;68.72;101675.91;4917856;29;20190;-75
2022/05/01 02:39:28;;;;;;;4.78;3.65;;;7.90;1.00;;;7.86;68.79;101681.97;4918010;29;20201;-75
2022/05/01 02:42:03;;;;;;;4.40;3.83;;;7.90;1.00;;;7.85;68.64;101680.28;4918165;29;20303;-74
2022/05/01 02:44:33;;;;;;;4.57;3.45;;;7.90;1.00;;;7.84;68.66;101679.44;4918525;29;20184;-72
2022/05/01 02:47:03;;;;;;;4.50;3.55;;;7.90;1.00;;;7.78;69.24;101674.72;4917859;29;20599;-75
2022/05/01 02:49:35;;;;;;;8.20;4.10;;;7.90;1.00;;;7.80;69.08;101674.53;4917879;29;20169;-74
2022/05/01 02:52:06;;;;;;;2.72;2.47;;;7.80;1.00;;;7.79;69.17;101672.88;4917922;29;20580;-73
2022/05/01 02:54:35;;;;;;;10.98;4.32;;;7.90;1.00;;;7.87;68.70;101670.19;4917205;29;20192;-75
2022/05/01 02:57:05;;;;;;;3.00;2.70;;;7.90;1.00;;;7.87;68.93;101667.50;4915676;29;20193;-73
2022/05/01 02:59:34;;;;;;;5.15;3.72;;;7.90;1.00;;;7.91;69.05;101676.09;4915768;29;20201;-72
2022/05/01 03:02:03;;;;;;;4.85;3.45;;;7.90;1.00;;;7.86;69.39;101674.72;4916007;29;20208;-73
2022/05/01 03:04:33;;;;;;;7.75;4.43;;;7.90;1.00;;;7.85;69.44;101664.94;4921302;29;20188;-72
2022/05/01 03:07:04;;;;;;;5.38;4.05;;;7.80;1.00;;;7.88;69.44;101674.56;4922565;29;20185;-72
2022/05/01 03:09:35;;;;;;;4.40;3.40;;;7.80;1.00;;;7.78;70.17;101677.41;4921689;29;20197;-73
2022/05/01 03:12:06;;;;;;;4.53;3.55;;;7.80;1.00;;;7.89;70.14;101665.47;4919144;29;20204;-74
2022/05/01 03:14:41;;;;;;;3.90;3.60;;;7.80;1.00;;;7.73;70.51;101660.91;4918047;29;20414;-74
2022/05/01 03:17:10;;;;;;;4.85;3.35;;;7.80;1.00;;;7.70;71.19;101663.91;4916355;29;20189;-74
2022/05/01 03:22:26;;;;;;;3.95;2.85;;;7.70;1.00;;;7.73;71.38;101665.44;4920825;29;20200;-75
2022/05/01 03:24:56;;;;;;;3.72;2.92;;;7.70;1.00;;;7.67;71.38;101664.25;4920810;29;20197;-74
2022/05/01 03:27:26;;;;;;;5.65;3.60;;;7.70;1.00;;;7.64;71.47;101674.53;4921784;29;20679;-74
2022/05/01 03:32:38;;;;;;;8.35;4.32;;;7.60;1.00;;;7.58;71.69;101675.16;4973557;23;20300;-74
2022/05/01 03:35:10;;;;;;;5.50;3.33;;;7.60;1.00;;;7.48;72.24;101677.16;4910890;29;20201;-72
2022/05/01 03:37:40;;;;;;;5.07;3.75;;;7.60;1.00;;;7.53;71.98;101678.34;4919558;29;20205;-73
2022/05/01 03:40:16;;;;;;;5.80;2.90;;;7.50;1.00;;;7.41;72.78;101669.72;4921041;29;20438;-73
2022/05/01 03:42:48;;;;;;;5.70;3.75;;;7.50;1.00;;;7.35;72.80;101667.69;4920173;29;20201;-72
2022/05/01 03:45:19;;;;;;;4.55;3.38;;;7.40;1.00;;;7.41;72.23;101667.03;4921229;29;20238;-73
2022/05/01 03:47:55;;;;;;;6.85;4.20;;;7.50;1.00;;;7.29;72.88;101671.03;4920270;29;20285;-74
2022/05/01 03:50:25;;;;;;;8.73;5.10;;;7.40;1.00;;;7.34;72.89;101673.22;4917763;29;20708;-74
2022/05/01 03:52:54;;;;;;;5.90;4.05;;;7.40;1.00;;;7.35;72.78;101677.63;4916523;29;20197;-74
2022/05/01 03:55:25;;;;;;;4.50;4.10;;;7.40;1.00;;;7.38;72.58;101670.06;4916258;29;20197;-73
2022/05/01 03:57:54;;;;;;;5.63;3.72;;;7.30;1.00;;;7.37;72.49;101679.13;4918401;29;20633;-73
2022/05/01 04:00:24;;;;;;;3.92;3.05;;;7.30;1.00;;;7.38;72.58;101680.81;4916747;29;20292;-73
2022/05/01 04:02:54;;;;;;;4.10;3.25;;;7.40;1.00;;;7.30;72.80;101682.66;4917123;29;20724;-73
2022/05/01 04:05:23;;;;;;;3.90;3.22;;;7.30;1.00;;;7.23;72.75;101679.75;4916952;29;20193;-72
2022/05/01 04:07:53;;;;;;;4.63;4.18;;;7.30;1.00;;;7.25;72.88;101677.75;4917181;29;20225;-72
2022/05/01 04:10:24;;;;;;;5.65;4.00;;;7.30;1.00;;;7.35;72.75;101675.78;4917017;29;20213;-74
2022/05/01 04:12:53;;;;;;;5.43;3.40;;;7.30;1.00;;;7.39;72.58;101671.75;4917651;29;20224;-72
2022/05/01 04:15:23;;;;;;;4.78;3.80;;;7.40;1.00;;;7.43;72.18;101675.78;4918687;29;20285;-73
2022/05/01 04:17:53;;;;;;;8.50;4.35;;;7.30;1.00;;;7.40;72.25;101673.44;4919418;29;20273;-73
2022/05/01 04:20:25;;;;;;;5.95;4.20;;;7.40;1.00;;;7.49;72.09;101677.00;4918813;29;20320;-74
2022/05/01 04:23:03;;;;;;;4.75;3.17;;;7.40;1.00;;;7.57;71.75;101674.31;4918766;29;20228;-75
2022/05/01 04:25:42;;;;;;;7.38;4.38;;;7.50;1.00;;;7.59;71.51;101676.84;4918393;29;20292;-74
2022/05/01 04:28:13;;;;;;;4.18;3.38;;;7.50;1.00;;;7.66;71.33;101672.47;4918471;29;20454;-74
2022/05/01 04:30:50;;;;;;;4.38;3.97;;;7.60;1.00;;;7.66;71.30;101684.09;4917290;29;20214;-75
2022/05/01 04:33:19;;;;;;;4.72;3.85;;;7.50;1.00;;;7.89;70.79;101689.72;4943913;23;20261;-72
2022/05/01 04:35:50;;;;;;;7.70;5.10;;;7.70;1.00;;;8.34;68.81;101694.69;4925714;29;20216;-74
2022/05/01 04:38:21;;;;;;;5.88;3.05;;;7.80;1.00;;;8.85;67.03;101681.84;4935352;29;20248;-72
2022/05/01 04:40:54;;;;;;;10.13;4.32;;;8.10;1.00;;;9.37;65.63;101687.59;4934854;29;20217;-74
2022/05/01 04:43:26;;;;;;;4.57;3.80;;;8.50;1.00;;;9.81;64.20;101675.22;4934827;29;20208;-73
2022/05/01 04:45:58;;;;;;;3.85;3.55;;;8.70;1.00;;;10.40;62.60;101678.19;4934671;29;20260;-75
2022/05/01 04:48:28;;;;;;;5.35;4.13;;;9.10;1.00;;;11.37;60.10;101677.19;4931508;23;20233;-70
2022/05/01 04:50:59;;;;;;;3.97;3.38;;;9.60;1.00;;;11.91;57.61;101676.81;4998401;23;20304;-73
2022/05/01 04:53:30;;;;;;;6.85;3.22;;;10.10;1.00;;;12.33;56.30;101676.84;4899881;29;20182;-73
2022/05/01 04:57:05;;;;;;;7.65;3.35;;;10.60;1.00;;;12.42;55.05;101675.66;4900102;29;20650;-73
2022/05/01 04:58:50;;;;;;;6.50;3.60;;;10.90;1.00;;;12.40;55.36;101683.16;4899824;29;20265;-73
2022/05/01 05:01:21;;;;;;;5.90;3.80;;;11.00;1.00;;;12.32;55.11;101683.28;4899108;29;20324;-73
2022/05/01 05:03:53;;;;;;;6.32;4.10;;;11.00;1.00;;;13.12;53.45;101682.06;4900241;29;20261;-74
2022/05/01 05:06:27;;;;;;;4.50;3.83;;;11.40;1.00;;;13.58;52.61;101679.56;4899625;29;20178;-73
2022/05/01 05:11:50;;;;;;;5.03;3.97;;;12.10;1.00;;;13.98;51.10;101695.00;4898509;29;20466;-73
2022/05/01 05:14:19;;;;;;;6.20;5.17;;;12.50;1.00;;;13.83;51.28;101694.31;4897790;29;20442;-74
2022/05/01 05:16:48;;;;;;;3.97;3.00;;;12.60;1.00;;;13.68;51.60;101694.47;4897960;29;20454;-73
2022/05/01 05:19:17;;;;;;;5.00;4.40;;;12.60;1.00;;;12.09;54.97;101698.94;4897112;29;20438;-73
2022/05/01 05:21:46;;;;;;;11.80;4.67;;;12.00;1.00;;;11.35;57.22;101700.91;4896937;29;20478;-74
2022/05/01 05:24:24;;;;;;;7.30;3.23;;;11.40;1.00;;;10.96;58.33;101695.75;4896891;29;20434;-74
2022/05/01 05:26:54;;;;;;;5.10;3.83;;;11.00;1.00;;;10.66;59.41;101697.56;4897322;29;20939;-73
2022/05/01 05:29:24;;;;;;;4.80;3.67;;;10.70;1.00;;;10.57;59.82;101704.09;4896038;29;20810;-73
2022/05/01 05:31:53;;;;;;;6.10;4.07;;;10.50;1.00;;;10.49;60.19;101698.75;4896717;29;20652;-71
2022/05/01 05:34:22;;;;;;;3.88;3.40;;;10.40;1.00;;;10.55;60.51;101705.31;4894739;29;20194;-71
2022/05/01 05:36:51;;;;;;;8.45;3.97;;;10.40;1.00;;;10.83;59.51;101696.41;4895743;29;20171;-70
2022/05/01 05:39:20;;;;;;;4.25;3.70;;;10.50;1.00;;;11.04;58.95;101702.94;4896181;29;20181;-71
2022/05/01 05:41:49;;;;;;;6.27;4.50;;;10.60;1.00;;;11.21;58.44;101707.16;4895503;29;20226;-71
2022/05/01 05:44:19;;;;;;;5.03;3.87;;;10.80;1.00;;;11.20;58.09;101700.06;4894235;29;20454;-70
2022/05/01 05:46:48;;;;;;;4.43;3.90;;;11.00;1.00;;;11.34;57.98;101705.47;4894351;29;20439;-73
2022/05/01 05:49:17;;;;;;;5.00;4.13;;;11.10;1.00;;;11.80;57.19;101701.72;4894975;29;20427;-71
2022/05/01 05:51:46;;;;;;;4.17;3.70;;;11.40;1.00;;;12.17;55.52;101710.50;4895706;29;20980;-74
2022/05/01 05:54:15;;;;;;;4.87;3.97;;;11.60;1.00;;;12.37;55.19;101707.97;4896536;29;20454;-71
2022/05/01 05:56:44;;;;;;;4.73;3.10;;;11.80;1.00;;;12.64;54.61;101711.75;4895790;29;20891;-73
2022/05/01 05:59:15;;;;;;;4.00;3.33;;;12.20;1.00;;;12.70;54.31;101713.69;4894573;29;20746;-70
2022/05/01 06:01:45;;;;;;;6.20;3.60;;;12.40;1.00;;;12.90;54.15;101716.56;4894767;29;20466;-72
2022/05/01 06:04:15;;;;;;;4.47;4.10;;;12.50;1.00;;;12.64;54.48;101712.59;4893968;29;20434;-73
2022/05/01 06:06:44;;;;;;;4.80;3.27;;;12.40;1.00;;;12.59;55.00;101720.50;4894711;29;20956;-72
2022/05/01 06:09:13;;;;;;;6.00;3.33;;;12.40;1.00;;;12.88;54.52;101721.34;4894275;29;20439;-72
2022/05/01 06:11:42;;;;;;;5.20;3.70;;;12.50;1.00;;;13.05;53.89;101717.31;4894709;29;20478;-70
2022/05/01 06:14:11;;;;;;;7.53;4.20;;;12.70;1.00;;;12.85;54.43;101719.88;4894828;29;20459;-71
2022/05/01 06:16:40;;;;;;;6.90;5.27;;;12.60;1.00;;;12.92;54.78;101719.94;4894737;29;20502;-70
2022/05/01 06:19:10;;;;;;;17.73;14.73;;;12.70;1.00;;;12.95;55.05;101719.53;4894143;29;20470;-74
2022/05/01 06:21:39;;;;;;;7.70;6.83;;;12.80;1.00;;;13.16;54.82;101719.53;4895702;29;20474;-72
2022/05/01 06:24:08;;;;;;;15.67;12.90;;;12.80;1.00;;;13.25;54.83;101725.63;4893705;29;21021;-72
2022/05/01 06:26:38;;;;;;;7.97;7.17;;;13.00;1.00;;;13.13;54.87;101722.63;4893610;29;20817;-71
2022/05/01 06:29:06;;;;;;;6.77;6.07;;;13.00;1.00;;;13.11;55.44;101716.56;4894951;29;20435;-72
2022/05/01 06:31:38;;;;;;;8.03;4.23;;;13.00;1.00;;;13.55;54.47;101726.22;4893811;29;20534;-73
2022/05/01 06:34:12;;;;;;;7.83;7.13;;;13.20;1.00;;;13.60;54.03;101723.75;4893149;29;20557;-72
2022/05/01 06:36:41;;;;;;;4.83;4.33;;;13.30;1.00;;;13.27;53.89;101729.81;4894788;29;20442;-74
2022/05/01 06:39:11;;;;;;;9.20;4.10;;;13.30;1.00;;;13.47;53.61;101728.06;4894979;29;20849;-71
2022/05/01 06:41:40;;;;;;;8.50;7.83;;;13.30;1.00;;;13.58;53.48;101720.38;4893545;29;20486;-72
2022/05/01 06:44:09;;;;;;;9.83;7.10;;;13.30;1.00;;;13.33;53.92;101720.88;4895645;29;20825;-71
2022/05/01 06:46:38;;;;;;;5.60;4.50;;;13.30;1.00;;;13.43;54.13;101728.66;4894607;29;20536;-73
2022/05/01 06:49:07;;;;;;;9.87;4.20;;;13.20;1.00;;;13.79;53.40;101728.44;4897549;29;20426;-72
2022/05/01 06:51:37;;;;;;;8.63;4.90;;;13.40;1.00;;;13.67;52.86;101730.03;4897975;29;20465;-73
2022/05/01 06:54:08;;;;;;;10.77;4.23;;;13.50;1.00;;;13.65;52.80;101738.38;4897037;29;20789;-73
2022/05/01 06:56:37;;;;;;;3.97;3.43;;;13.50;1.00;;;13.59;53.07;101738.38;4894486;29;20875;-70
2022/05/01 06:59:06;;;;;;;4.50;2.60;;;13.50;1.00;;;13.53;53.00;101739.16;4894853;29;20996;-73
2022/05/01 07:01:35;;;;;;;4.83;4.33;;;13.40;1.00;;;13.17;53.94;101737.47;4895927;29;20478;-72
2022/05/01 07:04:05;;;;;;;8.13;4.00;;;13.20;1.00;;;13.27;53.72;101735.25;4894185;29;20612;-74
2022/05/01 07:06:34;;;;;;;7.23;4.73;;;13.20;1.00;;;13.68;52.91;101737.16;4895209;29;20952;-71
2022/05/01 07:09:04;;;;;;;6.10;3.97;;;13.40;1.00;;;13.91;52.16;101732.22;4893449;29;20448;-72
2022/05/01 07:11:33;;;;;;;6.63;3.87;;;13.60;1.00;;;14.14;51.57;101731.88;4894701;29;20460;-71
2022/05/01 07:14:02;;;;;;;4.20;3.20;;;13.80;1.00;;;13.81;52.14;101737.22;4894725;29;20521;-72
2022/05/01 07:16:31;;;;;;;5.27;4.47;;;13.70;1.00;;;13.62;52.48;101737.97;4894432;29;20942;-72
2022/05/01 07:19:00;;;;;;;4.70;3.50;;;13.50;1.00;;;13.81;52.02;101732.59;4894561;29;20462;-71
2022/05/01 07:21:29;;;;;;;7.00;3.60;;;13.60;1.00;;;14.26;51.31;101735.69;4894581;29;20514;-71
2022/05/01 07:23:58;;;;;;;3.33;3.03;;;13.90;1.00;;;14.44;49.36;101732.41;4894206;29;20466;-71
2022/05/01 07:26:33;;;;;;;5.27;3.30;;;14.10;1.00;;;14.96;48.50;101732.41;4909448;29;20421;-71
2022/05/01 07:29:02;;;;;;;4.67;3.00;;;14.50;1.00;;;15.18;48.36;101730.31;4893280;29;20541;-71
2022/05/01 07:31:32;;;;;;;4.33;3.43;;;14.70;1.00;;;14.74;48.71;101729.06;4893831;29;20433;-73
2022/05/01 07:34:01;;;;;;;6.80;6.20;;;14.60;1.00;;;14.73;48.72;101727.41;4894497;29;20412;-71
2022/05/01 07:36:30;;;;;;;3.93;3.57;;;14.50;1.00;;;15.15;48.00;101725.28;4894809;29;20426;-71
2022/05/01 07:38:59;;;;;;;5.20;2.70;;;14.70;1.00;;;15.48;47.24;101728.78;4893153;29;20504;-71
2022/05/01 07:41:29;;;;;;;5.87;3.17;;;14.90;1.00;;;15.97;46.60;101736.38;4893189;29;20449;-72
2022/05/01 07:43:58;;;;;;;3.53;2.47;;;15.30;1.00;;;15.89;45.31;101728.44;4894469;29;20404;-71
2022/05/01 07:46:27;;;;;;;3.57;3.20;;;15.50;1.00;;;15.32;46.68;101728.38;4894305;29;20411;-72
2022/05/01 07:48:56;;;;;;;4.33;3.27;;;15.20;1.00;;;15.77;46.37;101730.19;4894635;29;20453;-71
2022/05/01 07:51:25;;;;;;;4.73;3.30;;;15.40;1.00;;;16.13;45.76;101731.47;4893095;29;20437;-73
2022/05/01 07:53:56;;;;;;;6.13;2.83;;;15.50;1.00;;;16.10;45.03;101732.75;4892752;29;20451;-70
2022/05/01 07:56:26;;;;;;;5.50;2.90;;;15.60;1.00;;;15.79;44.09;101730.78;4894322;29;20886;-70
2022/05/01 07:58:56;;;;;;;3.60;2.50;;;15.50;1.00;;;15.92;44.21;101733.47;4912831;29;20840;-70
2022/05/01 08:01:25;;;;;;;3.13;2.80;;;15.60;1.00;;;15.69;45.08;101735.84;4913117;29;20502;-72
2022/05/01 08:06:41;;;;;;;4.10;3.07;;;15.80;1.00;;;16.21;44.33;101728.50;4915057;29;20420;-71
2022/05/01 08:09:10;;;;;;;4.20;2.50;;;15.80;1.00;;;16.57;43.71;101734.13;4915461;29;20778;-72
2022/05/01 08:11:39;;;;;;;3.87;2.60;;;16.00;1.00;;;16.71;42.10;101727.53;4916243;29;20475;-72
2022/05/01 08:14:12;;;;;;;4.93;4.40;;;16.10;1.00;;;16.40;42.05;101730.25;4916734;29;20415;-70
2022/05/01 08:16:41;;;;;;;4.57;4.17;;;16.10;1.00;;;15.95;43.06;101727.56;4916820;29;20897;-72
2022/05/01 08:21:56;;;;;;;5.00;4.60;;;15.70;1.00;;;16.33;41.53;101723.97;4916365;29;20476;-70
2022/05/01 08:24:25;;;;;;;7.53;6.37;;;15.90;1.00;;;16.63;41.19;101730.53;4914572;29;20512;-72
2022/05/01 08:26:54;;;;;;;4.10;2.50;;;16.00;1.00;;;16.61;41.35;101727.19;4914418;29;20935;-71
2022/05/01 08:29:25;;;;;;;4.87;2.50;;;16.10;1.00;;;16.63;42.00;101727.81;4915979;29;20968;-74
2022/05/01 08:31:54;;;;;;;10.40;2.50;;;16.10;1.00;;;16.65;41.11;101724.84;4915396;29;20445;-74
2022/05/01 08:34:23;;;;;;;5.13;2.23;;;16.20;1.00;;;15.62;42.93;101727.72;4914471;29;20500;-70
2022/05/01 08:36:52;;;;;;;4.13;2.73;;;15.80;1.00;;;15.96;42.84;101729.25;4915523;29;20388;-73
2022/05/01 08:39:20;;;;;;;7.23;5.10;;;15.70;1.00;;;15.91;41.73;101725.50;4915573;29;20483;-71
2022/05/01 08:41:50;;;;;;;2.70;1.90;;;15.70;1.00;;;15.58;42.04;101729.19;4913723;29;20460;-72
2022/05/01 08:44:32;;;;;;;4.30;2.90;;;15.50;1.00;;;15.50;42.44;101728.53;4915452;29;20811;-71
2022/05/01 08:47:14;;;;;;;7.73;7.03;;;15.40;1.00;;;15.50;43.15;101731.28;4915503;29;20388;-71
2022/05/01 08:49:45;;;;;;;8.77;7.60;;;15.50;1.00;;;15.56;43.51;101727.72;4915313;29;20843;-71
2022/05/01 08:52:18;;;;;;;10.23;8.00;;;15.40;1.00;;;15.48;43.55;101730.66;4914911;29;20422;-71
2022/05/01 08:54:49;;;;;;;3.70;2.33;;;15.40;1.00;;;15.21;44.17;101730.72;4915322;29;20407;-72
2022/05/01 08:57:21;;;;;;;12.00;10.90;;;15.10;1.00;;;15.25;44.27;101730.31;4915313;29;20404;-72
2022/05/01 08:59:54;;;;;;;5.07;4.33;;;15.10;1.00;;;15.29;44.02;101734.28;4915336;29;20396;-72
2022/05/01 09:02:24;;;;;;;7.20;5.50;;;15.10;1.00;;;15.39;43.69;101724.59;4914742;29;20998;-72
2022/05/01 09:04:53;;;;;;;3.83;2.80;;;15.10;1.00;;;15.16;44.00;101722.31;4914950;29;20794;-71
2022/05/01 09:07:22;;;;;;;4.50;2.80;;;15.10;1.00;;;15.03;44.12;101729.69;4914237;29;20449;-72
2022/05/01 09:09:51;;;;;;;2.97;2.50;;;14.90;1.00;;;15.13;44.25;101736.41;4914007;29;20826;-71
2022/05/01 09:15:09;;;;;;;2.50;2.17;;;15.00;1.00;;;15.01;44.16;101729.88;4915951;29;20775;-72
2022/05/01 09:17:38;;;;;;;2.67;2.23;;;14.90;1.00;;;15.22;43.44;101729.66;4915112;29;20913;-74
2022/05/01 09:20:10;;;;;;;3.17;1.93;;;15.10;1.00;;;15.51;42.87;101732.97;4915729;29;20467;-74
2022/05/01 09:22:52;;;;;;;2.33;1.80;;;15.30;1.00;;;15.48;42.42;101731.50;4915697;29;20469;-73
2022/05/01 09:25:24;;;;;;;2.03;1.87;;;15.30;1.00;;;15.53;42.16;101736.34;4916144;29;20792;-73
2022/05/01 09:27:57;;;;;;;2.07;1.53;;;15.30;1.00;;;15.64;41.81;101735.66;4916173;29;20876;-73
2022/05/01 09:30:34;;;;;;;1.90;1.60;;;15.50;1.00;;;15.77;42.00;101732.06;4916292;29;20460;-75
2022/05/01 09:33:04;;;;;;;2.63;1.57;;;15.50;1.00;;;15.77;41.20;101735.63;4915693;29;20410;-78
2022/05/01 09:35:35;;;;;;;2.03;1.60;;;15.60;1.00;;;15.93;40.33;101729.66;4915178;29;20412;-75
2022/05/01 09:38:16;;;;;;;2.37;1.50;;;15.70;1.00;;;16.16;40.55;101736.50;4914737;29;20780;-73
2022/05/01 09:40:48;;;;;;;5.30;2.60;;;15.80;1.00;;;16.34;39.95;101733.88;4914741;29;20461;-73
2022/05/01 09:43:38;;;;;;;2.07;1.80;;;16.00;1.00;;;15.56;41.14;101727.72;4915047;29;20455;-74
2022/05/01 09:46:17;;;;;;;2.60;2.03;;;15.70;1.00;;;15.55;41.51;101734.22;4915721;29;20797;-72
2022/05/01 09:49:00;;;;;;;2.20;1.53;;;15.50;1.00;;;15.97;40.34;101730.09;4914162;29;20986;-72
2022/05/01 09:51:31;;;;;;;3.07;2.60;;;15.70;1.00;;;15.96;39.96;101728.41;4913411;29;20644;-73
2022/05/01 09:54:02;;;;;;;2.90;1.60;;;15.70;1.00;;;15.97;39.63;101721.91;4913895;29;20388;-74
2022/05/01 09:56:44;;;;;;;2.50;1.90;;;15.70;1.00;;;15.99;39.57;101723.34;4913733;29;20433;-73
2022/05/01 09:59:15;;;;;;;5.00;2.03;;;15.70;1.00;;;15.87;40.19;101729.72;4915418;29;20422;-72
2022/05/01 10:01:58;;;;;;;2.23;1.80;;;15.70;1.00;;;15.69;40.43;101722.22;4913955;29;20477;-72
2022/05/01 10:04:27;;;;;;;2.43;1.47;;;15.60;1.00;;;15.69;40.18;101722.22;4916029;29;20504;-71
2022/05/01 10:06:58;;;;;;;7.70;5.00;;;15.50;1.00;;;15.63;40.23;101718.47;4913617;29;20508;-72
2022/05/01 10:09:29;;;;;;;5.70;3.20;;;15.40;1.00;;;15.34;41.31;101716.22;4915012;29;20422;-72
2022/05/01 10:12:04;;;;;;;2.97;2.10;;;15.20;1.00;;;15.30;40.88;101716.88;4914801;29;20449;-72
2022/05/01 10:14:34;;;;;;;12.50;6.80;;;15.20;1.00;;;15.29;41.28;101717.91;4914742;29;20433;-70
2022/05/01 10:17:07;;;;;;;2.77;2.50;;;15.10;1.00;;;15.17;41.11;101724.00;4915035;29;20806;-70
2022/05/01 10:19:39;;;;;;;9.10;6.80;;;15.00;1.00;;;15.29;41.58;101723.38;4913865;29;20412;-73
2022/05/01 10:22:08;;;;;;;3.10;2.77;;;15.10;1.00;;;15.42;41.54;101723.31;4913284;29;20446;-71
2022/05/01 10:24:37;;;;;;;5.43;4.13;;;15.10;1.00;;;15.41;41.42;101725.22;4914929;29;20444;-71
2022/05/01 10:27:20;;;;;;;9.63;7.97;;;15.20;1.00;;;15.65;41.10;101720.97;4914011;29;20440;-72
2022/05/01 10:33:37;;;;;;;1.60;1.10;;;15.50;1.00;;;15.58;41.08;101725.63;4913944;29;20408;-73
2022/05/01 10:36:49;;;;;;;3.23;2.33;;;15.60;1.00;;;16.00;40.68;101716.00;4913824;29;20446;-71
2022/05/01 10:39:20;;;;;;;3.60;3.07;;;15.70;1.00;;;15.95;40.59;101721.28;4913679;29;20980;-72
2022/05/01 10:41:50;;;;;;;3.10;2.80;;;15.70;1.00;;;16.14;40.14;101714.88;4914555;29;20449;-71
2022/05/01 10:44:30;;;;;;;4.80;4.17;;;15.80;1.00;;;15.87;40.18;101719.63;4913806;29;20551;-71
2022/05/01 10:47:09;;;;;;;3.10;2.40;;;15.80;1.00;;;15.92;40.24;101711.63;4928321;23;20497;-66
2022/05/01 10:49:43;;;;;;;2.10;1.50;;;15.70;1.00;;;15.63;40.59;101709.44;4916537;29;20403;-68
2022/05/01 10:52:21;;;;;;;3.70;2.60;;;15.60;1.00;;;15.75;40.73;101709.59;4913817;29;20400;-68
2022/05/01 10:54:55;;;;;;;5.07;1.90;;;15.60;1.00;;;15.92;40.36;101717.09;4909315;29;20430;-68
2022/05/01 10:57:25;;;;;;;2.30;1.87;;;15.70;1.00;;;15.81;40.65;101715.03;4906165;29;21030;-69
2022/05/01 11:00:10;;;;;;;4.03;2.20;;;15.60;1.00;;;15.73;41.05;101712.56;4920726;23;20574;-64
2022/05/01 11:02:43;;;;;;;1.97;1.70;;;15.60;1.00;;;15.58;41.34;101710.09;4921647;29;20432;-64
2022/05/01 11:05:44;;;;;;;4.30;2.40;;;15.50;1.00;;;15.80;41.00;101707.91;4934955;29;20394;-64
2022/05/01 11:08:19;;;;;;;3.70;2.40;;;15.50;1.00;;;16.06;40.49;101712.41;4935025;29;20420;-65
2022/05/01 11:10:49;;;;;;;3.27;1.70;;;15.70;1.00;;;16.03;40.13;101701.91;4934802;29;20448;-64